createdAt,value
2022-09-06T00:00:52.628Z,68.5
2022-09-06T00:03:52.657Z,68.5
2022-09-06T00:06:52.643Z,68.4
2022-09-06T00:09:52.643Z,68.3
2022-09-06T00:12:52.654Z,68.3
2022-09-06T00:15:52.676Z,68.5
2022-09-06T00:18:52.669Z,68.7
2022-09-06T00:21:52.671Z,69.2
2022-09-06T00:24:52.678Z,69.5
2022-09-06T00:27:52.680Z,69.8
2022-09-06T00:30:52.720Z,70.3
2022-09-06T00:33:52.692Z,70.6
2022-09-06T00:36:52.698Z,70.9
2022-09-06T00:39:52.751Z,70.8
2022-09-06T00:42:52.707Z,70.6
2022-09-06T00:45:52.764Z,70.3
2022-09-06T00:48:52.722Z,70.1
2022-09-06T00:51:52.722Z,70.1
2022-09-06T00:54:52.726Z,69.6
2022-09-06T00:57:52.732Z,69.5
2022-09-06T01:00:52.733Z,69.3
2022-09-06T01:03:52.736Z,69.2
2022-09-06T01:06:52.746Z,69.2
2022-09-06T01:09:52.739Z,69.1
2022-09-06T01:12:52.740Z,69.1
2022-09-06T01:15:52.794Z,69.3
2022-09-06T01:18:52.756Z,69.7
2022-09-06T01:21:52.757Z,70.4
2022-09-06T01:24:52.777Z,70.8
2022-09-06T01:27:52.770Z,71.3
2022-09-06T01:30:52.846Z,71.7
2022-09-06T01:33:52.781Z,72
2022-09-06T01:37:08.761Z,72
2022-09-06T01:39:52.876Z,72.1
2022-09-06T01:42:52.811Z,72.1
2022-09-06T01:45:52.829Z,72.1
2022-09-06T01:48:52.815Z,71.9
2022-09-06T01:51:52.817Z,71.7
2022-09-06T01:54:52.827Z,71.3
2022-09-06T01:57:52.822Z,71
2022-09-06T02:00:52.833Z,70.8
2022-09-06T02:03:52.824Z,70.3
2022-09-06T02:06:52.820Z,69.8
2022-09-06T02:09:52.823Z,69.5
2022-09-06T02:12:52.834Z,68.7
2022-09-06T02:15:52.831Z,68.4
2022-09-06T02:18:52.821Z,67.8
2022-09-06T02:21:52.822Z,67.1
2022-09-06T02:24:52.854Z,66.5
2022-09-06T02:27:52.827Z,65.8
2022-09-06T02:30:52.855Z,65.6
2022-09-06T02:33:52.832Z,65.5
2022-09-06T02:36:52.830Z,65.4
2022-09-06T02:39:52.869Z,65
2022-09-06T02:42:52.835Z,65
2022-09-06T02:45:52.877Z,65.1
2022-09-06T02:48:52.843Z,65.2
2022-09-06T02:51:52.844Z,65
2022-09-06T02:54:52.843Z,64.9
2022-09-06T02:57:52.848Z,65.1
2022-09-06T03:00:52.896Z,65
2022-09-06T03:03:52.848Z,65.1
2022-09-06T03:06:52.852Z,65.1
2022-09-06T03:09:52.850Z,65.2
2022-09-06T03:12:52.850Z,65.2
2022-09-06T03:15:52.862Z,65.1
2022-09-06T03:18:52.859Z,65.2
2022-09-06T03:21:52.855Z,65.2
2022-09-06T03:24:52.861Z,65.1
2022-09-06T03:27:52.861Z,65.2
2022-09-06T03:30:52.935Z,65.2
2022-09-06T03:33:52.870Z,65.3
2022-09-06T03:36:52.868Z,65.4
2022-09-06T03:39:52.900Z,65.4
2022-09-06T03:42:52.876Z,65.4
2022-09-06T03:45:52.995Z,65
2022-09-06T03:48:52.889Z,64.8
2022-09-06T03:51:52.893Z,64.8
2022-09-06T03:54:52.896Z,64.3
2022-09-06T03:57:52.900Z,64.3
2022-09-06T04:00:52.921Z,64.2
2022-09-06T04:03:52.908Z,64
2022-09-06T04:06:52.906Z,64
2022-09-06T04:09:52.912Z,63.6
2022-09-06T04:12:52.921Z,63.6
2022-09-06T04:15:52.971Z,63.8
2022-09-06T04:18:52.922Z,63.9
2022-09-06T04:21:52.926Z,63.7
2022-09-06T04:24:52.930Z,63.6
2022-09-06T04:27:52.939Z,63.5
2022-09-06T04:30:52.938Z,63.5
2022-09-06T04:33:52.940Z,63.6
2022-09-06T04:36:52.945Z,63.5
2022-09-06T04:39:52.986Z,63.3
2022-09-06T04:42:52.964Z,63.2
2022-09-06T04:45:52.981Z,62.8
2022-09-06T04:48:52.965Z,62.9
2022-09-06T04:51:52.967Z,62.6
2022-09-06T04:54:52.970Z,62.7
2022-09-06T04:57:52.977Z,62.6
2022-09-06T05:00:53.077Z,62.5
2022-09-06T05:03:56.253Z,62.4
2022-09-06T05:06:52.990Z,62.2
2022-09-06T05:09:52.997Z,62.2
2022-09-06T05:12:52.998Z,62.3
2022-09-06T05:15:53.010Z,62.3
2022-09-06T05:18:53.009Z,62.1
2022-09-06T05:21:53.020Z,62
2022-09-06T05:24:53.016Z,61.8
2022-09-06T05:27:53.024Z,61.8
2022-09-06T05:30:53.029Z,61.5
2022-09-06T05:33:53.037Z,61.6
2022-09-06T05:36:53.044Z,61.4
2022-09-06T05:39:53.094Z,61.3
2022-09-06T05:42:53.059Z,61.2
2022-09-06T05:45:53.123Z,61.2
2022-09-06T05:48:53.069Z,60.9
2022-09-06T05:51:53.082Z,60.9
2022-09-06T05:54:53.088Z,60.6
2022-09-06T05:57:53.094Z,60.5
2022-09-06T06:00:53.137Z,60.5
2022-09-06T06:03:53.111Z,60.3
2022-09-06T06:06:53.123Z,60.2
2022-09-06T06:09:53.121Z,60.2
2022-09-06T06:12:53.135Z,60.2
2022-09-06T06:15:53.135Z,60.1
2022-09-06T06:18:53.186Z,60.2
2022-09-06T06:21:53.156Z,60.1
2022-09-06T06:24:53.166Z,59.7
2022-09-06T06:27:53.170Z,59.7
2022-09-06T06:30:53.173Z,59.8
2022-09-06T06:33:53.181Z,59.7
2022-09-06T06:36:53.180Z,59.5
2022-09-06T06:39:53.216Z,59.3
2022-09-06T06:42:53.192Z,59.3
2022-09-06T06:45:53.276Z,59
2022-09-06T06:48:55.015Z,58.6
2022-09-06T06:51:53.220Z,58.2
2022-09-06T06:54:53.217Z,58
2022-09-06T06:57:53.227Z,57.5
2022-09-06T07:00:53.314Z,57.2
2022-09-06T07:03:53.232Z,57.4
2022-09-06T07:12:53.256Z,56.9
2022-09-06T07:15:53.314Z,56.4
2022-09-06T07:18:53.267Z,56.4
2022-09-06T07:21:53.268Z,55.9
2022-09-06T07:24:53.280Z,55.9
2022-09-06T07:27:53.288Z,55.7
2022-09-06T07:30:53.293Z,55.1
2022-09-06T07:33:55.130Z,54.8
2022-09-06T07:36:53.316Z,54.2
2022-09-06T07:39:53.410Z,53.7
2022-09-06T07:42:53.322Z,53.4
2022-09-06T07:45:53.326Z,53.6
2022-09-06T07:48:53.325Z,53.5
2022-09-06T07:51:53.334Z,53.5
2022-09-06T07:54:53.341Z,53.6
2022-09-06T07:57:53.354Z,53.6
2022-09-06T08:00:53.405Z,53.8
2022-09-06T08:03:53.364Z,53.9
2022-09-06T08:09:53.393Z,54.5
2022-09-06T08:12:53.394Z,54.2
2022-09-06T08:15:53.423Z,54.5
2022-09-06T08:18:53.408Z,53.9
2022-09-06T08:21:53.418Z,54.1
2022-09-06T08:24:53.426Z,54.3
2022-09-06T08:27:53.437Z,53.4
2022-09-06T08:30:53.459Z,53.8
2022-09-06T08:33:53.463Z,53.8
2022-09-06T08:36:53.473Z,53.4
2022-09-06T08:39:53.537Z,53.5
2022-09-06T08:42:53.483Z,53
2022-09-06T08:45:55.611Z,53.1
2022-09-06T08:48:53.500Z,53
2022-09-06T08:51:53.512Z,52.2
2022-09-06T08:54:53.516Z,52
2022-09-06T08:57:53.526Z,52.3
2022-09-06T09:00:53.609Z,52.2
2022-09-06T09:03:53.543Z,52.7
2022-09-06T09:06:53.547Z,52.2
2022-09-06T09:09:53.556Z,52.7
2022-09-06T09:12:53.579Z,52.3
2022-09-06T09:15:53.650Z,50.9
2022-09-06T09:18:53.596Z,49.6
2022-09-06T09:21:53.602Z,49.1
2022-09-06T09:24:53.608Z,49
2022-09-06T09:27:53.627Z,48.6
2022-09-06T09:30:53.637Z,48.4
2022-09-06T09:33:53.650Z,47.5
2022-09-06T09:39:53.691Z,48
2022-09-06T09:42:53.681Z,48
2022-09-06T09:45:53.687Z,47.9
2022-09-06T09:48:53.692Z,47.3
2022-09-06T09:51:53.698Z,46.8
2022-09-06T09:54:53.709Z,45.3
2022-09-06T09:57:53.723Z,44.6
2022-09-06T10:00:53.786Z,45.2
2022-09-06T10:07:09.333Z,45.3
2022-09-06T10:09:53.779Z,45.9
2022-09-06T10:12:53.789Z,45.8
2022-09-06T10:15:53.874Z,45.8
2022-09-06T10:18:53.812Z,46
2022-09-06T10:21:53.821Z,46.8
2022-09-06T10:24:53.830Z,46.4
2022-09-06T10:28:10.289Z,45.6
2022-09-06T10:30:53.937Z,45.3
2022-09-06T10:33:53.869Z,45.6
2022-09-06T10:36:53.884Z,45.5
2022-09-06T10:39:53.982Z,45.7
2022-09-06T10:42:53.898Z,44.6
2022-09-06T10:45:53.912Z,44.5
2022-09-06T10:48:53.927Z,44.5
2022-09-06T10:51:53.931Z,44.3
2022-09-06T10:54:53.952Z,44.8
2022-09-06T10:58:21.314Z,43.9
2022-09-06T11:00:53.977Z,44.4
2022-09-06T11:03:55.480Z,44.6
2022-09-06T11:06:54.015Z,43.6
2022-09-06T11:09:54.018Z,43.3
2022-09-06T11:12:54.034Z,44
2022-09-06T11:15:54.101Z,44.1
2022-09-06T11:18:54.060Z,44.2
2022-09-06T11:21:54.076Z,44.7
2022-09-06T11:24:54.104Z,44.4
2022-09-06T11:27:57.910Z,43.9
2022-09-06T11:30:54.195Z,43.9
2022-09-06T11:33:55.706Z,44.5
2022-09-06T11:36:54.141Z,44.3
2022-09-06T11:42:54.315Z,45.5
2022-09-06T11:45:54.283Z,45.5
2022-09-06T11:48:54.196Z,45.5
2022-09-06T11:51:54.210Z,45.5
2022-09-06T11:54:54.221Z,46.2
2022-09-06T11:57:54.252Z,44.7
2022-09-06T12:00:54.266Z,44.8
2022-09-06T12:04:10.244Z,44.9
2022-09-06T12:06:54.271Z,45.2
2022-09-06T12:09:54.285Z,45.6
2022-09-06T12:12:54.295Z,45.4
2022-09-06T12:15:54.399Z,45.4
2022-09-06T12:18:54.321Z,45.2
2022-09-06T12:21:54.323Z,44.4
2022-09-06T12:24:54.335Z,44.8
2022-09-06T12:27:54.332Z,44.6
2022-09-06T12:30:54.353Z,45.7
2022-09-06T12:33:54.333Z,45.1
2022-09-06T12:36:54.347Z,45.6
2022-09-06T12:39:54.391Z,45.6
2022-09-06T12:42:54.350Z,46
2022-09-06T12:45:54.347Z,46.4
2022-09-06T12:48:54.347Z,46.7
2022-09-06T12:51:54.353Z,46.3
2022-09-06T12:54:54.356Z,46.2
2022-09-06T12:57:54.364Z,46.2
2022-09-06T13:00:54.367Z,45.9
2022-09-06T13:03:54.364Z,45.6
2022-09-06T13:06:54.367Z,46.2
2022-09-06T13:09:54.371Z,46.4
2022-09-06T13:12:54.369Z,47.6
2022-09-06T13:15:54.422Z,47
2022-09-06T13:18:54.375Z,47
2022-09-06T13:21:54.379Z,46.8
2022-09-06T13:24:54.375Z,47.2
2022-09-06T13:27:54.383Z,47.3
2022-09-06T13:30:54.402Z,47.2
2022-09-06T13:33:54.385Z,47.2
2022-09-06T13:36:54.390Z,47.6
2022-09-06T13:39:54.453Z,47.3
2022-09-06T13:42:54.394Z,47.7
2022-09-06T13:45:54.433Z,48.1
2022-09-06T13:48:54.398Z,47.5
2022-09-06T13:51:54.401Z,48.1
2022-09-06T13:54:54.397Z,48.8
2022-09-06T13:57:54.401Z,48
2022-09-06T14:00:54.404Z,47.9
2022-09-06T14:03:54.402Z,48.4
2022-09-06T14:06:54.403Z,48.4
2022-09-06T14:09:54.405Z,49
2022-09-06T14:12:54.414Z,48.3
2022-09-06T14:15:54.432Z,48.6
2022-09-06T14:18:54.412Z,48
2022-09-06T14:21:54.407Z,48.6
2022-09-06T14:24:54.411Z,48.6
2022-09-06T14:27:54.416Z,48.4
2022-09-06T14:30:54.460Z,48.7
2022-09-06T14:33:54.415Z,48.9
2022-09-06T14:36:54.412Z,49.1
2022-09-06T14:39:54.477Z,49.7
2022-09-06T14:42:54.423Z,48.8
2022-09-06T14:45:54.449Z,49
2022-09-06T14:48:54.558Z,48.9
2022-09-06T14:51:54.425Z,49.1
2022-09-06T14:54:54.423Z,49.2
2022-09-06T14:57:54.424Z,48.6
2022-09-06T15:00:54.429Z,48.6
2022-09-06T15:03:54.433Z,48.7
2022-09-06T15:06:54.431Z,48.8
2022-09-06T15:09:54.433Z,49.1
2022-09-06T15:12:54.433Z,48.9
2022-09-06T15:15:54.475Z,48.5
2022-09-06T15:18:54.448Z,48.6
2022-09-06T15:21:54.443Z,49.1
2022-09-06T15:24:54.450Z,48.7
2022-09-06T15:27:54.452Z,48.8
2022-09-06T15:30:54.498Z,48.9
2022-09-06T15:33:54.451Z,49.2
2022-09-06T15:36:54.458Z,49.4
2022-09-06T15:39:54.514Z,49.5
2022-09-06T15:42:54.459Z,50.2
2022-09-06T15:45:54.489Z,50
2022-09-06T15:48:54.463Z,50.3
2022-09-06T15:51:54.466Z,50.4
2022-09-06T15:54:54.471Z,50.7
2022-09-06T15:57:54.465Z,50.5
2022-09-06T16:00:54.479Z,50.4
2022-09-06T16:03:54.472Z,50.5
2022-09-06T16:06:54.474Z,50.8
2022-09-06T16:09:54.513Z,51
2022-09-06T16:12:54.479Z,51.4
2022-09-06T16:15:54.476Z,51.4
2022-09-06T16:18:54.486Z,51.5
2022-09-06T16:21:54.483Z,51.3
2022-09-06T16:24:54.488Z,51.3
2022-09-06T16:27:54.489Z,51.6
2022-09-06T16:30:54.531Z,51.7
2022-09-06T16:33:54.495Z,52
2022-09-06T16:36:54.498Z,52.3
2022-09-06T16:39:54.577Z,52.5
2022-09-06T16:42:54.508Z,53.2
2022-09-06T16:45:54.600Z,53.3
2022-09-06T16:48:54.511Z,52.9
2022-09-06T16:51:54.517Z,53
2022-09-06T16:54:54.515Z,53.3
2022-09-06T16:57:54.519Z,53.6
2022-09-06T17:00:54.578Z,53.5
2022-09-06T17:03:54.522Z,53.5
2022-09-06T17:06:54.529Z,53.9
2022-09-06T17:09:54.524Z,54.4
2022-09-06T17:12:54.546Z,54.9
2022-09-06T17:15:54.527Z,55.4
2022-09-06T17:18:54.531Z,56.1
2022-09-06T17:21:54.531Z,56.4
2022-09-06T17:24:54.534Z,56.7
2022-09-06T17:27:54.536Z,57
2022-09-06T17:30:54.561Z,57.5
2022-09-06T17:33:54.540Z,57.7
2022-09-06T17:36:54.543Z,58.2
2022-09-06T17:39:54.577Z,58.4
2022-09-06T17:42:54.546Z,58.6
2022-09-06T17:45:54.618Z,59
2022-09-06T17:48:54.571Z,59
2022-09-06T17:51:54.573Z,59.2
2022-09-06T17:54:54.579Z,59.5
2022-09-06T17:57:54.580Z,59.8
2022-09-06T18:00:54.621Z,60.2
2022-09-06T18:03:54.654Z,60.7
2022-09-06T18:06:54.591Z,60.9
2022-09-06T18:09:54.592Z,61.2
2022-09-06T18:12:54.591Z,61.7
2022-09-06T18:15:54.598Z,61.9
2022-09-06T18:18:54.605Z,62.3
2022-09-06T18:21:54.648Z,62.6
2022-09-06T18:24:58.121Z,62.7
2022-09-06T18:27:54.612Z,62.9
2022-09-06T18:30:54.622Z,63
2022-09-06T18:33:54.620Z,63.3
2022-09-06T18:36:54.627Z,63.5
2022-09-06T18:39:54.664Z,63.6
2022-09-06T18:42:54.638Z,63.8
2022-09-06T18:45:54.711Z,64
2022-09-06T18:48:54.646Z,64
2022-09-06T18:51:54.648Z,64.2
2022-09-06T18:54:54.652Z,64.4
2022-09-06T18:57:54.654Z,64.6
2022-09-06T19:00:54.731Z,64.7
2022-09-06T19:03:54.667Z,64.8
2022-09-06T19:06:54.680Z,65
2022-09-06T19:09:54.688Z,65.1
2022-09-06T19:12:54.683Z,64.9
2022-09-06T19:15:54.692Z,65.1
2022-09-06T19:18:54.694Z,65
2022-09-06T19:21:54.703Z,65.1
2022-09-06T19:24:54.709Z,65.4
2022-09-06T19:27:54.709Z,65.6
2022-09-06T19:30:54.714Z,65.7
2022-09-06T19:33:54.721Z,66
2022-09-06T19:36:54.720Z,66.1
2022-09-06T19:39:54.742Z,66.2
2022-09-06T19:42:54.733Z,66.4
2022-09-06T19:45:54.734Z,66.5
2022-09-06T19:48:54.736Z,66.7
2022-09-06T19:51:54.741Z,66.9
2022-09-06T19:54:54.745Z,66.9
2022-09-06T19:57:54.760Z,67
2022-09-06T20:00:54.802Z,66.9
2022-09-06T20:03:54.764Z,66.9
2022-09-06T20:06:54.770Z,66.8
2022-09-06T20:09:54.781Z,66.8
2022-09-06T20:12:54.781Z,66.8
2022-09-06T20:15:54.847Z,66.9
2022-09-06T20:18:54.784Z,67
2022-09-06T20:21:54.802Z,66.9
2022-09-06T20:24:54.801Z,67.2
2022-09-06T20:27:54.801Z,67
2022-09-06T20:30:54.813Z,67.2
2022-09-06T20:33:54.814Z,67.3
2022-09-06T20:36:54.820Z,67.6
2022-09-06T20:39:54.847Z,67.8
2022-09-06T20:42:54.835Z,67.7
2022-09-06T20:45:54.841Z,68
2022-09-06T20:48:54.852Z,68.3
2022-09-06T20:51:54.859Z,68.5
2022-09-06T20:54:54.856Z,68.7
2022-09-06T20:57:54.860Z,69
2022-09-06T21:00:54.940Z,69.3
2022-09-06T21:03:54.873Z,69.4
2022-09-06T21:06:54.876Z,69.5
2022-09-06T21:09:54.874Z,69.6
2022-09-06T21:12:54.888Z,69.6
2022-09-06T21:15:54.947Z,69.8
2022-09-06T21:18:54.909Z,69.6
2022-09-06T21:21:54.912Z,69.9
2022-09-06T21:24:54.916Z,69.9
2022-09-06T21:27:55.832Z,70.1
2022-09-06T21:30:54.934Z,70.3
2022-09-06T21:33:54.959Z,70.2
2022-09-06T21:36:54.943Z,70.3
2022-09-06T21:39:55.030Z,70.6
2022-09-06T21:42:54.953Z,70.7
2022-09-06T21:45:54.960Z,71
2022-09-06T21:48:54.964Z,71.2
2022-09-06T21:51:54.967Z,71.2
2022-09-06T21:54:55.029Z,71.2
2022-09-06T21:57:54.982Z,71.4
2022-09-06T22:00:55.070Z,71.4
2022-09-06T22:03:55.000Z,71.5
2022-09-06T22:06:55.006Z,71.6
2022-09-06T22:09:55.029Z,71.7
2022-09-06T22:12:55.029Z,71.8
2022-09-06T22:15:55.097Z,72.1
2022-09-06T22:18:55.037Z,72.3
2022-09-06T22:21:55.052Z,72.5
2022-09-06T22:24:55.058Z,72.6
2022-09-06T22:27:55.072Z,72.7
2022-09-06T22:30:55.075Z,72.9
2022-09-06T22:33:55.087Z,73
2022-09-06T22:36:55.093Z,72.9
2022-09-06T22:39:55.123Z,72.9
2022-09-06T22:42:55.105Z,73
2022-09-06T22:45:55.113Z,73
2022-09-06T22:48:55.126Z,73.2
2022-09-06T22:51:55.131Z,73.3
2022-09-06T22:54:55.138Z,73.4
2022-09-06T22:57:55.150Z,73.8
2022-09-06T23:00:55.222Z,73.8
2022-09-06T23:03:55.164Z,73.8
2022-09-06T23:06:55.167Z,74
2022-09-06T23:09:55.178Z,74
2022-09-06T23:12:55.189Z,74.2
2022-09-06T23:15:55.225Z,74.7
2022-09-06T23:18:55.202Z,75
2022-09-06T23:21:55.215Z,75.2
2022-09-06T23:24:55.223Z,75.5
2022-09-06T23:27:55.225Z,75.7
2022-09-06T23:30:55.232Z,76.1
2022-09-06T23:33:55.247Z,76.2
2022-09-06T23:36:55.249Z,76.3
2022-09-06T23:39:55.337Z,76.5
2022-09-06T23:42:55.274Z,76.7
2022-09-06T23:45:55.273Z,76.9
2022-09-06T23:48:55.285Z,77.1
2022-09-06T23:51:55.297Z,77.4
2022-09-06T23:54:55.306Z,77.4
2022-09-06T23:57:55.316Z,77.5
